sensor_id;sensor_type;location;lat;lon;timestamp;P1;durP1;ratioP1;P2;durP2;ratioP2
36457;SDS011;22480;50.546;12.292;2023-09-19T00:00:04;2.80;;;2.00;;
36457;SDS011;22480;50.546;12.292;2023-09-19T00:02:33;3.40;;;2.10;;
36457;SDS011;22480;50.546;12.292;2023-09-19T00:04:59;2.33;;;1.48;;
36457;SDS011;22480;50.546;12.292;2023-09-19T00:07:28;4.07;;;1.33;;
36457;SDS011;22480;50.546;12.292;2023-09-19T00:09:54;4.00;;;1.80;;
36457;SDS011;22480;50.546;12.292;2023-09-19T00:12:20;4.30;;;1.50;;
36457;SDS011;22480;50.546;12.292;2023-09-19T00:14:45;2.75;;;1.55;;
36457;SDS011;22480;50.546;12.292;2023-09-19T00:17:13;5.68;;;1.98;;
36457;SDS011;22480;50.546;12.292;2023-09-19T00:19:38;2.42;;;1.45;;
36457;SDS011;22480;50.546;12.292;2023-09-19T00:22:04;3.58;;;1.70;;
36457;SDS011;22480;50.546;12.292;2023-09-19T00:24:30;3.47;;;1.35;;
36457;SDS011;22480;50.546;12.292;2023-09-19T00:26:56;3.10;;;1.55;;
36457;SDS011;22480;50.546;12.292;2023-09-19T00:29:24;2.15;;;1.30;;
36457;SDS011;22480;50.546;12.292;2023-09-19T00:31:54;1.92;;;1.52;;
36457;SDS011;22480;50.546;12.292;2023-09-19T00:34:21;6.55;;;1.88;;
36457;SDS011;22480;50.546;12.292;2023-09-19T00:36:47;1.85;;;1.13;;
36457;SDS011;22480;50.546;12.292;2023-09-19T00:39:12;2.60;;;1.83;;
36457;SDS011;22480;50.546;12.292;2023-09-19T00:41:38;3.75;;;1.48;;
36457;SDS011;22480;50.546;12.292;2023-09-19T00:44:05;4.22;;;1.30;;
36457;SDS011;22480;50.546;12.292;2023-09-19T00:46:31;5.45;;;1.52;;
36457;SDS011;22480;50.546;12.292;2023-09-19T00:48:57;2.42;;;1.75;;
36457;SDS011;22480;50.546;12.292;2023-09-19T00:51:24;3.33;;;1.35;;
36457;SDS011;22480;50.546;12.292;2023-09-19T00:53:52;1.30;;;1.00;;
36457;SDS011;22480;50.546;12.292;2023-09-19T00:56:19;2.35;;;1.60;;
36457;SDS011;22480;50.546;12.292;2023-09-19T00:58:46;3.83;;;1.83;;
36457;SDS011;22480;50.546;12.292;2023-09-19T01:01:15;2.47;;;1.42;;
36457;SDS011;22480;50.546;12.292;2023-09-19T01:03:42;2.20;;;1.08;;
36457;SDS011;22480;50.546;12.292;2023-09-19T01:06:09;2.65;;;1.00;;
36457;SDS011;22480;50.546;12.292;2023-09-19T01:08:35;1.60;;;1.40;;
36457;SDS011;22480;50.546;12.292;2023-09-19T01:11:08;5.75;;;1.45;;
36457;SDS011;22480;50.546;12.292;2023-09-19T01:13:47;1.10;;;0.90;;
36457;SDS011;22480;50.546;12.292;2023-09-19T01:16:42;2.15;;;1.40;;
36457;SDS011;22480;50.546;12.292;2023-09-19T01:19:33;3.17;;;1.05;;
36457;SDS011;22480;50.546;12.292;2023-09-19T01:30:24;2.42;;;1.35;;
36457;SDS011;22480;50.546;12.292;2023-09-19T01:32:54;2.80;;;1.40;;
36457;SDS011;22480;50.546;12.292;2023-09-19T01:35:20;3.17;;;1.27;;
36457;SDS011;22480;50.546;12.292;2023-09-19T01:37:45;2.13;;;1.33;;
36457;SDS011;22480;50.546;12.292;2023-09-19T01:40:15;1.90;;;1.40;;
36457;SDS011;22480;50.546;12.292;2023-09-19T01:47:53;1.55;;;1.20;;
36457;SDS011;22480;50.546;12.292;2023-09-19T01:53:22;2.47;;;1.25;;
36457;SDS011;22480;50.546;12.292;2023-09-19T01:55:53;2.30;;;1.63;;
36457;SDS011;22480;50.546;12.292;2023-09-19T01:58:21;5.90;;;1.67;;
36457;SDS011;22480;50.546;12.292;2023-09-19T02:01:01;2.55;;;2.00;;
36457;SDS011;22480;50.546;12.292;2023-09-19T02:03:29;2.33;;;1.65;;
36457;SDS011;22480;50.546;12.292;2023-09-19T02:05:56;2.83;;;1.65;;
36457;SDS011;22480;50.546;12.292;2023-09-19T02:08:22;2.08;;;1.58;;
36457;SDS011;22480;50.546;12.292;2023-09-19T02:10:51;1.63;;;1.40;;
36457;SDS011;22480;50.546;12.292;2023-09-19T02:13:19;2.88;;;1.55;;
36457;SDS011;22480;50.546;12.292;2023-09-19T02:15:46;2.33;;;1.60;;
36457;SDS011;22480;50.546;12.292;2023-09-19T02:18:14;3.33;;;1.48;;
36457;SDS011;22480;50.546;12.292;2023-09-19T02:20:41;3.50;;;1.58;;
36457;SDS011;22480;50.546;12.292;2023-09-19T02:23:08;2.80;;;1.42;;
36457;SDS011;22480;50.546;12.292;2023-09-19T02:25:34;1.70;;;1.60;;
36457;SDS011;22480;50.546;12.292;2023-09-19T02:28:01;4.45;;;1.65;;
36457;SDS011;22480;50.546;12.292;2023-09-19T02:30:28;4.13;;;1.85;;
36457;SDS011;22480;50.546;12.292;2023-09-19T02:32:55;1.83;;;1.35;;
36457;SDS011;22480;50.546;12.292;2023-09-19T02:35:21;5.97;;;2.22;;
36457;SDS011;22480;50.546;12.292;2023-09-19T02:37:47;1.75;;;1.42;;
36457;SDS011;22480;50.546;12.292;2023-09-19T02:40:14;6.57;;;2.20;;
36457;SDS011;22480;50.546;12.292;2023-09-19T02:42:54;6.57;;;1.30;;
36457;SDS011;22480;50.546;12.292;2023-09-19T02:45:22;2.45;;;1.52;;
36457;SDS011;22480;50.546;12.292;2023-09-19T02:47:48;4.63;;;1.60;;
36457;SDS011;22480;50.546;12.292;2023-09-19T02:50:14;3.63;;;1.58;;
36457;SDS011;22480;50.546;12.292;2023-09-19T02:52:42;4.38;;;1.55;;
36457;SDS011;22480;50.546;12.292;2023-09-19T02:55:09;5.93;;;1.90;;
36457;SDS011;22480;50.546;12.292;2023-09-19T02:57:35;3.22;;;1.90;;
36457;SDS011;22480;50.546;12.292;2023-09-19T03:00:09;2.75;;;1.67;;
36457;SDS011;22480;50.546;12.292;2023-09-19T03:02:38;4.38;;;2.25;;
36457;SDS011;22480;50.546;12.292;2023-09-19T03:05:06;3.15;;;1.85;;
36457;SDS011;22480;50.546;12.292;2023-09-19T03:07:32;5.05;;;2.15;;
36457;SDS011;22480;50.546;12.292;2023-09-19T03:09:59;4.30;;;2.00;;
36457;SDS011;22480;50.546;12.292;2023-09-19T03:12:25;6.57;;;2.10;;
36457;SDS011;22480;50.546;12.292;2023-09-19T03:14:51;2.30;;;2.00;;
36457;SDS011;22480;50.546;12.292;2023-09-19T03:17:17;5.10;;;1.67;;
36457;SDS011;22480;50.546;12.292;2023-09-19T03:19:45;4.43;;;2.00;;
36457;SDS011;22480;50.546;12.292;2023-09-19T03:22:12;3.80;;;1.73;;
36457;SDS011;22480;50.546;12.292;2023-09-19T03:24:39;4.15;;;1.92;;
36457;SDS011;22480;50.546;12.292;2023-09-19T03:27:05;3.33;;;2.08;;
36457;SDS011;22480;50.546;12.292;2023-09-19T03:29:31;4.85;;;2.25;;
36457;SDS011;22480;50.546;12.292;2023-09-19T03:31:57;3.22;;;1.60;;
36457;SDS011;22480;50.546;12.292;2023-09-19T03:34:23;4.00;;;1.70;;
36457;SDS011;22480;50.546;12.292;2023-09-19T03:36:49;2.70;;;1.83;;
36457;SDS011;22480;50.546;12.292;2023-09-19T03:39:15;2.78;;;1.80;;
36457;SDS011;22480;50.546;12.292;2023-09-19T03:41:41;2.75;;;1.90;;
36457;SDS011;22480;50.546;12.292;2023-09-19T03:44:07;3.53;;;2.03;;
36457;SDS011;22480;50.546;12.292;2023-09-19T03:46:33;3.58;;;2.08;;
36457;SDS011;22480;50.546;12.292;2023-09-19T03:49:00;2.28;;;1.45;;
36457;SDS011;22480;50.546;12.292;2023-09-19T03:51:26;3.17;;;1.45;;
36457;SDS011;22480;50.546;12.292;2023-09-19T03:53:52;2.03;;;1.80;;
36457;SDS011;22480;50.546;12.292;2023-09-19T03:56:18;3.05;;;1.42;;
36457;SDS011;22480;50.546;12.292;2023-09-19T03:58:44;3.38;;;1.50;;
36457;SDS011;22480;50.546;12.292;2023-09-19T04:01:10;2.50;;;1.33;;
36457;SDS011;22480;50.546;12.292;2023-09-19T04:03:38;2.20;;;1.35;;
36457;SDS011;22480;50.546;12.292;2023-09-19T04:06:13;4.05;;;2.00;;
36457;SDS011;22480;50.546;12.292;2023-09-19T04:08:40;2.10;;;1.40;;
36457;SDS011;22480;50.546;12.292;2023-09-19T04:11:06;2.53;;;1.33;;
36457;SDS011;22480;50.546;12.292;2023-09-19T04:13:32;3.47;;;1.80;;
36457;SDS011;22480;50.546;12.292;2023-09-19T04:15:57;3.70;;;1.50;;
36457;SDS011;22480;50.546;12.292;2023-09-19T04:18:23;1.98;;;1.20;;
36457;SDS011;22480;50.546;12.292;2023-09-19T04:20:49;3.25;;;1.50;;
36457;SDS011;22480;50.546;12.292;2023-09-19T04:23:16;1.85;;;1.40;;
36457;SDS011;22480;50.546;12.292;2023-09-19T04:25:42;2.85;;;1.55;;
36457;SDS011;22480;50.546;12.292;2023-09-19T04:28:09;1.42;;;1.20;;
36457;SDS011;22480;50.546;12.292;2023-09-19T04:30:36;2.78;;;1.30;;
36457;SDS011;22480;50.546;12.292;2023-09-19T04:33:03;1.85;;;1.40;;
36457;SDS011;22480;50.546;12.292;2023-09-19T04:35:28;2.05;;;1.67;;
36457;SDS011;22480;50.546;12.292;2023-09-19T04:37:56;1.75;;;1.35;;
36457;SDS011;22480;50.546;12.292;2023-09-19T04:40:22;5.55;;;1.73;;
36457;SDS011;22480;50.546;12.292;2023-09-19T04:42:58;2.05;;;1.25;;
36457;SDS011;22480;50.546;12.292;2023-09-19T04:45:25;3.20;;;1.20;;
36457;SDS011;22480;50.546;12.292;2023-09-19T04:47:51;3.10;;;1.63;;
36457;SDS011;22480;50.546;12.292;2023-09-19T04:50:18;5.88;;;1.67;;
36457;SDS011;22480;50.546;12.292;2023-09-19T04:52:48;2.28;;;1.55;;
36457;SDS011;22480;50.546;12.292;2023-09-19T04:55:16;2.50;;;1.52;;
36457;SDS011;22480;50.546;12.292;2023-09-19T04:57:43;2.20;;;1.63;;
36457;SDS011;22480;50.546;12.292;2023-09-19T05:00:11;3.53;;;1.48;;
36457;SDS011;22480;50.546;12.292;2023-09-19T05:02:39;1.65;;;1.55;;
36457;SDS011;22480;50.546;12.292;2023-09-19T05:05:09;3.40;;;1.75;;
36457;SDS011;22480;50.546;12.292;2023-09-19T05:07:36;4.22;;;1.83;;
36457;SDS011;22480;50.546;12.292;2023-09-19T05:10:02;2.08;;;1.63;;
36457;SDS011;22480;50.546;12.292;2023-09-19T05:12:33;4.15;;;1.40;;
36457;SDS011;22480;50.546;12.292;2023-09-19T05:14:59;3.30;;;2.25;;
36457;SDS011;22480;50.546;12.292;2023-09-19T05:17:26;2.67;;;2.05;;
36457;SDS011;22480;50.546;12.292;2023-09-19T05:19:52;4.28;;;1.58;;
36457;SDS011;22480;50.546;12.292;2023-09-19T05:22:18;1.65;;;1.38;;
36457;SDS011;22480;50.546;12.292;2023-09-19T05:24:44;2.75;;;1.30;;
36457;SDS011;22480;50.546;12.292;2023-09-19T05:27:14;2.38;;;1.60;;
36457;SDS011;22480;50.546;12.292;2023-09-19T05:29:45;2.47;;;1.60;;
36457;SDS011;22480;50.546;12.292;2023-09-19T05:32:11;2.42;;;1.48;;
36457;SDS011;22480;50.546;12.292;2023-09-19T05:34:37;2.45;;;1.48;;
36457;SDS011;22480;50.546;12.292;2023-09-19T05:37:03;1.52;;;1.40;;
36457;SDS011;22480;50.546;12.292;2023-09-19T05:39:32;3.58;;;1.60;;
36457;SDS011;22480;50.546;12.292;2023-09-19T05:41:58;1.77;;;1.20;;
36457;SDS011;22480;50.546;12.292;2023-09-19T05:44:25;2.83;;;1.23;;
36457;SDS011;22480;50.546;12.292;2023-09-19T05:46:51;2.90;;;1.40;;
36457;SDS011;22480;50.546;12.292;2023-09-19T05:49:17;2.38;;;1.45;;
36457;SDS011;22480;50.546;12.292;2023-09-19T05:51:43;2.42;;;1.30;;
36457;SDS011;22480;50.546;12.292;2023-09-19T05:54:09;2.97;;;1.20;;
36457;SDS011;22480;50.546;12.292;2023-09-19T05:56:36;5.00;;;1.23;;
36457;SDS011;22480;50.546;12.292;2023-09-19T05:59:02;2.45;;;1.52;;
36457;SDS011;22480;50.546;12.292;2023-09-19T06:01:29;3.53;;;2.22;;
36457;SDS011;22480;50.546;12.292;2023-09-19T06:03:57;2.90;;;1.23;;
36457;SDS011;22480;50.546;12.292;2023-09-19T06:06:25;2.25;;;1.35;;
36457;SDS011;22480;50.546;12.292;2023-09-19T06:08:51;1.30;;;1.20;;
36457;SDS011;22480;50.546;12.292;2023-09-19T06:11:17;2.97;;;1.27;;
36457;SDS011;22480;50.546;12.292;2023-09-19T06:13:45;3.53;;;1.50;;
36457;SDS011;22480;50.546;12.292;2023-09-19T06:16:12;3.20;;;1.42;;
36457;SDS011;22480;50.546;12.292;2023-09-19T06:18:38;2.80;;;1.30;;
36457;SDS011;22480;50.546;12.292;2023-09-19T06:21:04;4.43;;;1.80;;
36457;SDS011;22480;50.546;12.292;2023-09-19T06:23:33;2.15;;;1.95;;
36457;SDS011;22480;50.546;12.292;2023-09-19T06:26:00;3.65;;;2.38;;
36457;SDS011;22480;50.546;12.292;2023-09-19T06:28:26;2.85;;;1.23;;
36457;SDS011;22480;50.546;12.292;2023-09-19T06:30:53;4.63;;;1.80;;
36457;SDS011;22480;50.546;12.292;2023-09-19T06:33:19;2.53;;;1.35;;
36457;SDS011;22480;50.546;12.292;2023-09-19T06:35:47;1.10;;;0.80;;
36457;SDS011;22480;50.546;12.292;2023-09-19T06:38:13;1.83;;;1.00;;
36457;SDS011;22480;50.546;12.292;2023-09-19T06:40:40;3.50;;;1.55;;
36457;SDS011;22480;50.546;12.292;2023-09-19T06:43:09;1.83;;;1.08;;
36457;SDS011;22480;50.546;12.292;2023-09-19T06:45:35;2.38;;;1.10;;
36457;SDS011;22480;50.546;12.292;2023-09-19T06:48:01;4.22;;;1.45;;
36457;SDS011;22480;50.546;12.292;2023-09-19T06:50:28;2.00;;;0.80;;
36457;SDS011;22480;50.546;12.292;2023-09-19T06:52:58;2.42;;;1.25;;
36457;SDS011;22480;50.546;12.292;2023-09-19T06:55:24;3.63;;;1.30;;
36457;SDS011;22480;50.546;12.292;2023-09-19T06:57:52;2.70;;;1.08;;
36457;SDS011;22480;50.546;12.292;2023-09-19T07:00:21;1.35;;;1.02;;
36457;SDS011;22480;50.546;12.292;2023-09-19T07:03:00;1.67;;;1.10;;
36457;SDS011;22480;50.546;12.292;2023-09-19T07:05:29;2.72;;;1.20;;
36457;SDS011;22480;50.546;12.292;2023-09-19T07:07:55;0.88;;;0.88;;
36457;SDS011;22480;50.546;12.292;2023-09-19T07:10:21;3.10;;;1.10;;
36457;SDS011;22480;50.546;12.292;2023-09-19T07:12:56;3.85;;;1.23;;
36457;SDS011;22480;50.546;12.292;2023-09-19T07:15:25;4.35;;;1.30;;
36457;SDS011;22480;50.546;12.292;2023-09-19T07:17:52;3.35;;;1.35;;
36457;SDS011;22480;50.546;12.292;2023-09-19T07:20:19;2.25;;;1.15;;
36457;SDS011;22480;50.546;12.292;2023-09-19T07:22:45;2.92;;;1.10;;
36457;SDS011;22480;50.546;12.292;2023-09-19T07:25:12;2.83;;;0.93;;
36457;SDS011;22480;50.546;12.292;2023-09-19T07:27:43;1.17;;;0.98;;
36457;SDS011;22480;50.546;12.292;2023-09-19T07:32:37;1.90;;;1.08;;
36457;SDS011;22480;50.546;12.292;2023-09-19T07:35:03;2.38;;;1.20;;
36457;SDS011;22480;50.546;12.292;2023-09-19T07:37:33;2.58;;;1.08;;
36457;SDS011;22480;50.546;12.292;2023-09-19T07:40:01;2.47;;;1.20;;
36457;SDS011;22480;50.546;12.292;2023-09-19T07:42:35;1.27;;;1.17;;
36457;SDS011;22480;50.546;12.292;2023-09-19T07:45:04;2.05;;;0.80;;
36457;SDS011;22480;50.546;12.292;2023-09-19T07:47:30;2.40;;;1.00;;
36457;SDS011;22480;50.546;12.292;2023-09-19T07:49:57;2.75;;;1.10;;
36457;SDS011;22480;50.546;12.292;2023-09-19T07:52:24;2.47;;;1.00;;
36457;SDS011;22480;50.546;12.292;2023-09-19T07:54:50;1.83;;;0.80;;
36457;SDS011;22480;50.546;12.292;2023-09-19T07:57:15;4.07;;;1.10;;
36457;SDS011;22480;50.546;12.292;2023-09-19T07:59:41;2.88;;;1.17;;
36457;SDS011;22480;50.546;12.292;2023-09-19T08:02:08;1.75;;;0.90;;
36457;SDS011;22480;50.546;12.292;2023-09-19T08:04:41;2.53;;;1.00;;
36457;SDS011;22480;50.546;12.292;2023-09-19T08:07:08;1.88;;;0.90;;
36457;SDS011;22480;50.546;12.292;2023-09-19T08:09:34;2.15;;;0.98;;
36457;SDS011;22480;50.546;12.292;2023-09-19T08:11:59;3.25;;;0.77;;
36457;SDS011;22480;50.546;12.292;2023-09-19T08:14:28;1.67;;;1.17;;
36457;SDS011;22480;50.546;12.292;2023-09-19T08:16:57;5.22;;;0.80;;
36457;SDS011;22480;50.546;12.292;2023-09-19T08:19:24;0.87;;;0.57;;
36457;SDS011;22480;50.546;12.292;2023-09-19T08:21:56;1.77;;;0.68;;
36457;SDS011;22480;50.546;12.292;2023-09-19T08:24:29;1.52;;;0.60;;
36457;SDS011;22480;50.546;12.292;2023-09-19T08:26:56;1.98;;;0.50;;
36457;SDS011;22480;50.546;12.292;2023-09-19T08:29:23;2.30;;;0.82;;
36457;SDS011;22480;50.546;12.292;2023-09-19T08:31:53;2.83;;;0.80;;
36457;SDS011;22480;50.546;12.292;2023-09-19T08:34:19;0.65;;;0.50;;
36457;SDS011;22480;50.546;12.292;2023-09-19T08:36:46;0.77;;;0.60;;
36457;SDS011;22480;50.546;12.292;2023-09-19T08:39:13;1.27;;;0.70;;
36457;SDS011;22480;50.546;12.292;2023-09-19T08:41:39;1.35;;;0.50;;
36457;SDS011;22480;50.546;12.292;2023-09-19T08:44:05;2.00;;;0.63;;
36457;SDS011;22480;50.546;12.292;2023-09-19T08:46:31;0.90;;;0.65;;
36457;SDS011;22480;50.546;12.292;2023-09-19T08:49:04;1.95;;;0.73;;
36457;SDS011;22480;50.546;12.292;2023-09-19T08:54:14;1.98;;;0.80;;
36457;SDS011;22480;50.546;12.292;2023-09-19T08:56:54;1.75;;;0.50;;
36457;SDS011;22480;50.546;12.292;2023-09-19T08:59:22;1.85;;;0.70;;
36457;SDS011;22480;50.546;12.292;2023-09-19T09:01:55;1.27;;;0.75;;
36457;SDS011;22480;50.546;12.292;2023-09-19T09:04:22;1.08;;;0.70;;
36457;SDS011;22480;50.546;12.292;2023-09-19T09:06:49;3.47;;;0.90;;
36457;SDS011;22480;50.546;12.292;2023-09-19T09:09:18;1.45;;;0.70;;
36457;SDS011;22480;50.546;12.292;2023-09-19T09:11:45;0.70;;;0.43;;
36457;SDS011;22480;50.546;12.292;2023-09-19T09:14:13;1.45;;;0.50;;
36457;SDS011;22480;50.546;12.292;2023-09-19T09:16:39;0.77;;;0.60;;
36457;SDS011;22480;50.546;12.292;2023-09-19T09:19:05;3.70;;;0.98;;
36457;SDS011;22480;50.546;12.292;2023-09-19T09:21:30;2.10;;;0.60;;
36457;SDS011;22480;50.546;12.292;2023-09-19T09:26:50;0.95;;;0.57;;
36457;SDS011;22480;50.546;12.292;2023-09-19T09:29:15;1.25;;;0.50;;
36457;SDS011;22480;50.546;12.292;2023-09-19T09:31:41;1.95;;;0.80;;
36457;SDS011;22480;50.546;12.292;2023-09-19T09:34:08;1.38;;;0.63;;
36457;SDS011;22480;50.546;12.292;2023-09-19T09:36:35;1.38;;;0.73;;
36457;SDS011;22480;50.546;12.292;2023-09-19T09:39:02;1.65;;;0.60;;
36457;SDS011;22480;50.546;12.292;2023-09-19T09:41:49;0.88;;;0.50;;
36457;SDS011;22480;50.546;12.292;2023-09-19T09:44:16;3.22;;;1.05;;
36457;SDS011;22480;50.546;12.292;2023-09-19T09:46:43;0.90;;;0.55;;
36457;SDS011;22480;50.546;12.292;2023-09-19T09:49:23;1.58;;;0.80;;
36457;SDS011;22480;50.546;12.292;2023-09-19T09:52:03;2.08;;;0.80;;
36457;SDS011;22480;50.546;12.292;2023-09-19T09:54:32;2.22;;;0.57;;
36457;SDS011;22480;50.546;12.292;2023-09-19T09:57:07;0.80;;;0.60;;
36457;SDS011;22480;50.546;12.292;2023-09-19T09:59:50;1.63;;;0.82;;
36457;SDS011;22480;50.546;12.292;2023-09-19T10:02:21;0.98;;;0.60;;
36457;SDS011;22480;50.546;12.292;2023-09-19T10:07:38;1.65;;;0.55;;
36457;SDS011;22480;50.546;12.292;2023-09-19T10:10:07;1.27;;;0.60;;
36457;SDS011;22480;50.546;12.292;2023-09-19T10:12:47;1.20;;;0.57;;
36457;SDS011;22480;50.546;12.292;2023-09-19T10:15:17;0.93;;;0.50;;
36457;SDS011;22480;50.546;12.292;2023-09-19T10:17:49;0.63;;;0.50;;
36457;SDS011;22480;50.546;12.292;2023-09-19T10:20:23;4.75;;;0.70;;
36457;SDS011;22480;50.546;12.292;2023-09-19T10:23:06;2.15;;;0.77;;
36457;SDS011;22480;50.546;12.292;2023-09-19T10:25:43;1.67;;;0.68;;
36457;SDS011;22480;50.546;12.292;2023-09-19T10:28:14;1.08;;;0.60;;
36457;SDS011;22480;50.546;12.292;2023-09-19T10:35:50;2.00;;;0.70;;
36457;SDS011;22480;50.546;12.292;2023-09-19T10:38:17;2.28;;;0.90;;
36457;SDS011;22480;50.546;12.292;2023-09-19T10:40:48;1.00;;;0.70;;
36457;SDS011;22480;50.546;12.292;2023-09-19T10:43:16;2.42;;;0.68;;
36457;SDS011;22480;50.546;12.292;2023-09-19T10:45:44;1.63;;;0.80;;
36457;SDS011;22480;50.546;12.292;2023-09-19T10:48:11;1.63;;;0.75;;
36457;SDS011;22480;50.546;12.292;2023-09-19T10:50:44;1.13;;;0.80;;
36457;SDS011;22480;50.546;12.292;2023-09-19T10:53:16;2.03;;;0.65;;
36457;SDS011;22480;50.546;12.292;2023-09-19T10:55:59;2.22;;;0.68;;
36457;SDS011;22480;50.546;12.292;2023-09-19T10:58:29;1.23;;;0.88;;
36457;SDS011;22480;50.546;12.292;2023-09-19T11:01:02;1.98;;;0.63;;
36457;SDS011;22480;50.546;12.292;2023-09-19T11:03:31;1.55;;;0.85;;
36457;SDS011;22480;50.546;12.292;2023-09-19T11:06:08;1.27;;;0.80;;
36457;SDS011;22480;50.546;12.292;2023-09-19T11:08:56;2.35;;;0.68;;
36457;SDS011;22480;50.546;12.292;2023-09-19T11:14:50;0.82;;;0.60;;
36457;SDS011;22480;50.546;12.292;2023-09-19T11:28:27;2.47;;;1.27;;
36457;SDS011;22480;50.546;12.292;2023-09-19T11:30:55;1.83;;;0.80;;
36457;SDS011;22480;50.546;12.292;2023-09-19T11:36:16;2.67;;;1.08;;
36457;SDS011;22480;50.546;12.292;2023-09-19T11:43:50;2.72;;;0.90;;
36457;SDS011;22480;50.546;12.292;2023-09-19T11:46:17;1.90;;;0.98;;
36457;SDS011;22480;50.546;12.292;2023-09-19T11:48:49;2.25;;;1.00;;
36457;SDS011;22480;50.546;12.292;2023-09-19T11:51:17;1.70;;;1.10;;
36457;SDS011;22480;50.546;12.292;2023-09-19T11:53:58;4.28;;;1.45;;
36457;SDS011;22480;50.546;12.292;2023-09-19T11:56:28;2.55;;;1.02;;
36457;SDS011;22480;50.546;12.292;2023-09-19T11:58:56;2.75;;;1.17;;
36457;SDS011;22480;50.546;12.292;2023-09-19T12:01:32;2.10;;;0.98;;
36457;SDS011;22480;50.546;12.292;2023-09-19T12:04:00;1.73;;;0.80;;
36457;SDS011;22480;50.546;12.292;2023-09-19T12:06:29;2.77;;;0.87;;
36457;SDS011;22480;50.546;12.292;2023-09-19T12:08:57;2.22;;;1.10;;
36457;SDS011;22480;50.546;12.292;2023-09-19T12:11:29;3.22;;;0.95;;
36457;SDS011;22480;50.546;12.292;2023-09-19T12:13:58;2.75;;;1.20;;
36457;SDS011;22480;50.546;12.292;2023-09-19T12:16:26;2.20;;;1.00;;
36457;SDS011;22480;50.546;12.292;2023-09-19T12:18:55;1.73;;;1.13;;
36457;SDS011;22480;50.546;12.292;2023-09-19T12:21:27;1.35;;;1.05;;
36457;SDS011;22480;50.546;12.292;2023-09-19T12:23:57;4.55;;;1.17;;
36457;SDS011;22480;50.546;12.292;2023-09-19T12:26:25;2.78;;;1.45;;
36457;SDS011;22480;50.546;12.292;2023-09-19T12:28:54;1.13;;;0.95;;
36457;SDS011;22480;50.546;12.292;2023-09-19T12:31:21;1.92;;;1.00;;
36457;SDS011;22480;50.546;12.292;2023-09-19T12:33:52;4.78;;;1.55;;
36457;SDS011;22480;50.546;12.292;2023-09-19T12:36:22;2.60;;;1.42;;
36457;SDS011;22480;50.546;12.292;2023-09-19T12:38:55;3.67;;;1.40;;
36457;SDS011;22480;50.546;12.292;2023-09-19T12:41:24;2.80;;;1.80;;
36457;SDS011;22480;50.546;12.292;2023-09-19T12:43:51;3.13;;;1.63;;
36457;SDS011;22480;50.546;12.292;2023-09-19T12:46:20;2.38;;;1.38;;
36457;SDS011;22480;50.546;12.292;2023-09-19T12:49:14;2.83;;;1.67;;
36457;SDS011;22480;50.546;12.292;2023-09-19T12:51:47;2.28;;;1.35;;
36457;SDS011;22480;50.546;12.292;2023-09-19T12:54:14;6.63;;;1.77;;
36457;SDS011;22480;50.546;12.292;2023-09-19T12:56:44;1.25;;;1.13;;
36457;SDS011;22480;50.546;12.292;2023-09-19T12:59:14;2.17;;;1.17;;
36457;SDS011;22480;50.546;12.292;2023-09-19T13:01:41;2.95;;;1.63;;
36457;SDS011;22480;50.546;12.292;2023-09-19T13:04:17;2.40;;;1.42;;
36457;SDS011;22480;50.546;12.292;2023-09-19T13:06:45;2.50;;;1.17;;
36457;SDS011;22480;50.546;12.292;2023-09-19T13:09:14;2.83;;;1.48;;
36457;SDS011;22480;50.546;12.292;2023-09-19T13:11:41;3.97;;;1.67;;
36457;SDS011;22480;50.546;12.292;2023-09-19T13:14:13;2.67;;;1.48;;
36457;SDS011;22480;50.546;12.292;2023-09-19T13:17:04;2.42;;;1.40;;
36457;SDS011;22480;50.546;12.292;2023-09-19T13:19:44;3.50;;;1.40;;
36457;SDS011;22480;50.546;12.292;2023-09-19T13:25:13;4.20;;;1.20;;
36457;SDS011;22480;50.546;12.292;2023-09-19T13:27:43;2.90;;;1.30;;
36457;SDS011;22480;50.546;12.292;2023-09-19T13:30:10;2.72;;;1.20;;
36457;SDS011;22480;50.546;12.292;2023-09-19T13:32:39;3.30;;;1.80;;
36457;SDS011;22480;50.546;12.292;2023-09-19T13:35:08;4.72;;;1.95;;
36457;SDS011;22480;50.546;12.292;2023-09-19T13:37:40;3.53;;;1.77;;
36457;SDS011;22480;50.546;12.292;2023-09-19T13:40:10;5.15;;;1.73;;
36457;SDS011;22480;50.546;12.292;2023-09-19T13:42:37;3.45;;;1.83;;
36457;SDS011;22480;50.546;12.292;2023-09-19T13:45:03;2.35;;;1.52;;
36457;SDS011;22480;50.546;12.292;2023-09-19T13:47:30;2.45;;;1.30;;
36457;SDS011;22480;50.546;12.292;2023-09-19T13:49:56;3.25;;;1.85;;
36457;SDS011;22480;50.546;12.292;2023-09-19T13:52:22;3.33;;;2.03;;
36457;SDS011;22480;50.546;12.292;2023-09-19T13:54:51;6.45;;;2.08;;
36457;SDS011;22480;50.546;12.292;2023-09-19T13:57:18;2.72;;;1.88;;
36457;SDS011;22480;50.546;12.292;2023-09-19T13:59:43;4.70;;;2.10;;
36457;SDS011;22480;50.546;12.292;2023-09-19T14:02:09;3.75;;;2.17;;
36457;SDS011;22480;50.546;12.292;2023-09-19T14:04:35;3.55;;;1.98;;
36457;SDS011;22480;50.546;12.292;2023-09-19T14:07:01;2.85;;;1.95;;
36457;SDS011;22480;50.546;12.292;2023-09-19T14:09:27;2.50;;;1.40;;
36457;SDS011;22480;50.546;12.292;2023-09-19T14:11:53;5.13;;;1.90;;
36457;SDS011;22480;50.546;12.292;2023-09-19T14:14:19;3.72;;;1.80;;
36457;SDS011;22480;50.546;12.292;2023-09-19T14:16:45;6.38;;;2.08;;
36457;SDS011;22480;50.546;12.292;2023-09-19T14:19:14;3.05;;;1.85;;
36457;SDS011;22480;50.546;12.292;2023-09-19T14:21:41;5.60;;;1.75;;
36457;SDS011;22480;50.546;12.292;2023-09-19T14:24:07;3.55;;;1.85;;
36457;SDS011;22480;50.546;12.292;2023-09-19T14:26:35;3.15;;;2.00;;
36457;SDS011;22480;50.546;12.292;2023-09-19T14:29:01;7.13;;;2.05;;
36457;SDS011;22480;50.546;12.292;2023-09-19T14:31:27;4.60;;;2.25;;
36457;SDS011;22480;50.546;12.292;2023-09-19T14:33:56;2.90;;;1.60;;
36457;SDS011;22480;50.546;12.292;2023-09-19T14:36:22;6.65;;;1.88;;
36457;SDS011;22480;50.546;12.292;2023-09-19T14:38:52;4.78;;;1.90;;
36457;SDS011;22480;50.546;12.292;2023-09-19T14:41:22;4.82;;;2.05;;
36457;SDS011;22480;50.546;12.292;2023-09-19T14:43:50;2.15;;;1.65;;
36457;SDS011;22480;50.546;12.292;2023-09-19T14:46:20;4.32;;;1.85;;
36457;SDS011;22480;50.546;12.292;2023-09-19T14:48:48;5.22;;;2.38;;
36457;SDS011;22480;50.546;12.292;2023-09-19T14:51:13;3.22;;;1.73;;
36457;SDS011;22480;50.546;12.292;2023-09-19T14:53:42;3.30;;;1.70;;
36457;SDS011;22480;50.546;12.292;2023-09-19T14:56:08;4.03;;;1.95;;
36457;SDS011;22480;50.546;12.292;2023-09-19T14:58:35;3.88;;;2.00;;
36457;SDS011;22480;50.546;12.292;2023-09-19T15:01:10;3.15;;;1.70;;
36457;SDS011;22480;50.546;12.292;2023-09-19T15:03:37;3.55;;;1.90;;
36457;SDS011;22480;50.546;12.292;2023-09-19T15:06:08;3.88;;;1.90;;
36457;SDS011;22480;50.546;12.292;2023-09-19T15:08:35;5.45;;;2.10;;
36457;SDS011;22480;50.546;12.292;2023-09-19T15:11:03;8.60;;;2.88;;
36457;SDS011;22480;50.546;12.292;2023-09-19T15:13:33;3.28;;;1.77;;
36457;SDS011;22480;50.546;12.292;2023-09-19T15:16:00;3.63;;;1.90;;
36457;SDS011;22480;50.546;12.292;2023-09-19T15:18:27;2.50;;;1.60;;
36457;SDS011;22480;50.546;12.292;2023-09-19T15:20:55;4.07;;;1.75;;
36457;SDS011;22480;50.546;12.292;2023-09-19T15:23:20;3.13;;;1.90;;
36457;SDS011;22480;50.546;12.292;2023-09-19T15:25:49;3.15;;;1.63;;
36457;SDS011;22480;50.546;12.292;2023-09-19T15:28:16;2.88;;;2.00;;
36457;SDS011;22480;50.546;12.292;2023-09-19T15:30:41;4.07;;;2.13;;
36457;SDS011;22480;50.546;12.292;2023-09-19T15:33:07;2.80;;;1.40;;
36457;SDS011;22480;50.546;12.292;2023-09-19T15:35:33;3.20;;;1.75;;
36457;SDS011;22480;50.546;12.292;2023-09-19T15:38:02;2.45;;;1.85;;